KVYS/VYS METAR and TAF weather

Enter ICAO airport designator
Station Type Date Time Source
KVYS METAR 2022/11/27 08:55 UTC NOAA

KVYS 270855Z AUTO 03006KT 7SM -RA OVC070 05/03 A2957 RMK AO2 T00540029


Station Type Date Time Source
KVYS Decoded METAR 2022/11/27 08:55 UTC NOAA

Peru, Illinois Valley Regional-Walter A Duncan Field Airport, IL, United States (KVYS) 41-21-07N 089-09-11W
Nov 27, 2022 - 03:55 AM EST / 2022.11.27 0855 UTC
Wind: from the NNE (030 degrees) at 7 MPH (6 KT):0
Visibility: 7 mile(s):0
Sky conditions: overcast
Weather: light rain
Temperature: 41.7 F (5.4 C)
Dew Point: 37.2 F (2.9 C)
Relative Humidity: 83%
Pressure (altimeter): 29.57 in. Hg (1001 hPa)
ob: KVYS 270855Z AUTO 03006KT 7SM -RA OVC070 05/03 A2957 RMK AO2 T00540029
cycle: 9

Station Type Date Time Source
KVYS TAF UTC NOAA

Error!

Example: see airport list